sensor_id;sensor_type;location;lat;lon;timestamp;temperature;humidity
3684;DHT22;1858;48.716;9.648;2022-07-23T00:00:35;23.70;99.90
3684;DHT22;1858;48.716;9.648;2022-07-23T00:03:03;23.50;1.00
3684;DHT22;1858;48.716;9.648;2022-07-23T00:08:18;23.20;1.00
3684;DHT22;1858;48.716;9.648;2022-07-23T00:10:45;23.10;1.00
3684;DHT22;1858;48.716;9.648;2022-07-23T00:13:13;23.10;99.90
3684;DHT22;1858;48.716;9.648;2022-07-23T00:15:40;23.20;99.90
3684;DHT22;1858;48.716;9.648;2022-07-23T00:18:08;23.30;99.90
3684;DHT22;1858;48.716;9.648;2022-07-23T00:20:36;23.30;99.90
3684;DHT22;1858;48.716;9.648;2022-07-23T00:23:03;23.20;99.90
3684;DHT22;1858;48.716;9.648;2022-07-23T00:25:31;23.10;99.90
3684;DHT22;1858;48.716;9.648;2022-07-23T00:27:59;23.10;99.90
3684;DHT22;1858;48.716;9.648;2022-07-23T00:30:27;23.00;99.90
3684;DHT22;1858;48.716;9.648;2022-07-23T00:32:57;23.00;99.90
3684;DHT22;1858;48.716;9.648;2022-07-23T00:38:07;23.00;1.00
3684;DHT22;1858;48.716;9.648;2022-07-23T00:40:36;22.90;99.90
3684;DHT22;1858;48.716;9.648;2022-07-23T00:43:04;23.00;99.90
3684;DHT22;1858;48.716;9.648;2022-07-23T00:45:32;23.00;99.90
3684;DHT22;1858;48.716;9.648;2022-07-23T00:48:00;22.90;1.00
3684;DHT22;1858;48.716;9.648;2022-07-23T00:50:27;22.80;1.00
3684;DHT22;1858;48.716;9.648;2022-07-23T00:52:55;22.60;1.00
3684;DHT22;1858;48.716;9.648;2022-07-23T00:55:23;22.50;1.00
3684;DHT22;1858;48.716;9.648;2022-07-23T00:57:51;22.50;1.00
3684;DHT22;1858;48.716;9.648;2022-07-23T01:00:20;22.50;1.00
3684;DHT22;1858;48.716;9.648;2022-07-23T01:02:48;22.50;1.00
3684;DHT22;1858;48.716;9.648;2022-07-23T01:05:15;22.50;1.00
3684;DHT22;1858;48.716;9.648;2022-07-23T01:07:45;22.50;1.00
3684;DHT22;1858;48.716;9.648;2022-07-23T01:10:13;22.60;1.00
3684;DHT22;1858;48.716;9.648;2022-07-23T01:13:03;22.60;1.00
3684;DHT22;1858;48.716;9.648;2022-07-23T01:15:31;22.50;1.00
3684;DHT22;1858;48.716;9.648;2022-07-23T01:17:59;22.50;1.00
3684;DHT22;1858;48.716;9.648;2022-07-23T01:20:27;22.40;1.00
3684;DHT22;1858;48.716;9.648;2022-07-23T01:22:55;22.40;1.00
3684;DHT22;1858;48.716;9.648;2022-07-23T01:25:23;22.50;1.00
3684;DHT22;1858;48.716;9.648;2022-07-23T01:27:56;22.50;1.00
3684;DHT22;1858;48.716;9.648;2022-07-23T01:30:19;22.40;1.00
3684;DHT22;1858;48.716;9.648;2022-07-23T01:32:47;22.40;1.00
3684;DHT22;1858;48.716;9.648;2022-07-23T01:35:15;22.50;1.00
3684;DHT22;1858;48.716;9.648;2022-07-23T01:37:42;22.60;1.00
3684;DHT22;1858;48.716;9.648;2022-07-23T01:40:10;22.50;1.00
3684;DHT22;1858;48.716;9.648;2022-07-23T01:42:37;22.50;1.00
3684;DHT22;1858;48.716;9.648;2022-07-23T01:45:05;22.40;1.00
3684;DHT22;1858;48.716;9.648;2022-07-23T01:47:33;22.30;1.00
3684;DHT22;1858;48.716;9.648;2022-07-23T01:50:01;22.30;1.00
3684;DHT22;1858;48.716;9.648;2022-07-23T01:52:28;22.40;1.00
3684;DHT22;1858;48.716;9.648;2022-07-23T01:54:56;22.50;1.00
3684;DHT22;1858;48.716;9.648;2022-07-23T01:57:23;22.60;1.00
3684;DHT22;1858;48.716;9.648;2022-07-23T01:59:51;22.50;1.00
3684;DHT22;1858;48.716;9.648;2022-07-23T02:02:19;22.50;99.90
3684;DHT22;1858;48.716;9.648;2022-07-23T02:04:46;22.50;99.90
3684;DHT22;1858;48.716;9.648;2022-07-23T02:07:14;22.60;99.90
3684;DHT22;1858;48.716;9.648;2022-07-23T02:09:41;22.60;99.90
3684;DHT22;1858;48.716;9.648;2022-07-23T02:12:09;22.60;99.90
3684;DHT22;1858;48.716;9.648;2022-07-23T02:14:37;22.50;99.90
3684;DHT22;1858;48.716;9.648;2022-07-23T02:17:04;22.50;99.90
3684;DHT22;1858;48.716;9.648;2022-07-23T02:19:32;22.40;99.90
3684;DHT22;1858;48.716;9.648;2022-07-23T02:22:00;22.40;99.90
3684;DHT22;1858;48.716;9.648;2022-07-23T02:24:28;22.30;1.00
3684;DHT22;1858;48.716;9.648;2022-07-23T02:26:56;22.30;99.90
3684;DHT22;1858;48.716;9.648;2022-07-23T02:29:24;22.30;99.90
3684;DHT22;1858;48.716;9.648;2022-07-23T02:31:51;22.10;1.00
3684;DHT22;1858;48.716;9.648;2022-07-23T02:34:19;22.10;1.00
3684;DHT22;1858;48.716;9.648;2022-07-23T02:36:47;22.10;1.00
3684;DHT22;1858;48.716;9.648;2022-07-23T02:39:14;22.10;99.90
3684;DHT22;1858;48.716;9.648;2022-07-23T02:41:42;22.10;1.00
3684;DHT22;1858;48.716;9.648;2022-07-23T02:44:09;22.10;1.00
3684;DHT22;1858;48.716;9.648;2022-07-23T02:46:37;22.00;1.00
3684;DHT22;1858;48.716;9.648;2022-07-23T02:49:05;21.90;1.00
3684;DHT22;1858;48.716;9.648;2022-07-23T02:51:32;21.80;1.00
3684;DHT22;1858;48.716;9.648;2022-07-23T02:54:00;21.80;1.00
3684;DHT22;1858;48.716;9.648;2022-07-23T02:56:27;21.80;1.00
3684;DHT22;1858;48.716;9.648;2022-07-23T02:58:55;21.70;1.00
3684;DHT22;1858;48.716;9.648;2022-07-23T03:01:23;21.50;1.00
3684;DHT22;1858;48.716;9.648;2022-07-23T03:03:50;21.60;1.00
3684;DHT22;1858;48.716;9.648;2022-07-23T03:06:18;21.50;1.00
3684;DHT22;1858;48.716;9.648;2022-07-23T03:08:45;21.50;1.00
3684;DHT22;1858;48.716;9.648;2022-07-23T03:11:13;21.40;1.00
3684;DHT22;1858;48.716;9.648;2022-07-23T03:13:41;21.30;1.00
3684;DHT22;1858;48.716;9.648;2022-07-23T03:16:08;21.00;41.80
3684;DHT22;1858;48.716;9.648;2022-07-23T03:18:36;21.00;99.90
3684;DHT22;1858;48.716;9.648;2022-07-23T03:21:03;20.80;99.90
3684;DHT22;1858;48.716;9.648;2022-07-23T03:23:32;20.70;99.90
3684;DHT22;1858;48.716;9.648;2022-07-23T03:26:00;20.80;99.90
3684;DHT22;1858;48.716;9.648;2022-07-23T03:28:28;20.80;99.90
3684;DHT22;1858;48.716;9.648;2022-07-23T03:31:02;20.70;99.90
3684;DHT22;1858;48.716;9.648;2022-07-23T03:33:30;20.60;99.90
3684;DHT22;1858;48.716;9.648;2022-07-23T03:35:57;20.60;99.90
3684;DHT22;1858;48.716;9.648;2022-07-23T03:38:25;20.60;99.90
3684;DHT22;1858;48.716;9.648;2022-07-23T03:40:53;20.50;99.90
3684;DHT22;1858;48.716;9.648;2022-07-23T03:43:21;20.50;97.40
3684;DHT22;1858;48.716;9.648;2022-07-23T03:45:50;20.50;99.90
3684;DHT22;1858;48.716;9.648;2022-07-23T03:48:23;20.50;12.10
3684;DHT22;1858;48.716;9.648;2022-07-23T03:50:56;20.50;11.00
3684;DHT22;1858;48.716;9.648;2022-07-23T03:53:24;20.50;52.50
3684;DHT22;1858;48.716;9.648;2022-07-23T03:55:52;20.40;54.90
3684;DHT22;1858;48.716;9.648;2022-07-23T03:58:21;20.40;39.80
3684;DHT22;1858;48.716;9.648;2022-07-23T04:00:48;20.40;40.60
3684;DHT22;1858;48.716;9.648;2022-07-23T04:03:17;20.40;40.60
3684;DHT22;1858;48.716;9.648;2022-07-23T04:05:45;20.40;16.80
3684;DHT22;1858;48.716;9.648;2022-07-23T04:08:13;20.30;25.20
3684;DHT22;1858;48.716;9.648;2022-07-23T04:10:43;20.40;30.50
3684;DHT22;1858;48.716;9.648;2022-07-23T04:13:10;20.40;1.00
3684;DHT22;1858;48.716;9.648;2022-07-23T04:15:38;20.40;13.20
3684;DHT22;1858;48.716;9.648;2022-07-23T04:18:06;20.40;53.70
3684;DHT22;1858;48.716;9.648;2022-07-23T04:20:44;20.40;27.40
3684;DHT22;1858;48.716;9.648;2022-07-23T04:23:12;20.40;1.00
3684;DHT22;1858;48.716;9.648;2022-07-23T04:25:43;20.50;4.20
3684;DHT22;1858;48.716;9.648;2022-07-23T04:28:13;20.50;1.00
3684;DHT22;1858;48.716;9.648;2022-07-23T04:30:40;20.40;1.00
3684;DHT22;1858;48.716;9.648;2022-07-23T04:33:08;20.50;53.90
3684;DHT22;1858;48.716;9.648;2022-07-23T04:35:37;20.50;3.90
3684;DHT22;1858;48.716;9.648;2022-07-23T04:38:05;20.50;9.60
3684;DHT22;1858;48.716;9.648;2022-07-23T04:40:33;20.50;72.80
3684;DHT22;1858;48.716;9.648;2022-07-23T04:43:01;20.50;99.90
3684;DHT22;1858;48.716;9.648;2022-07-23T04:45:28;20.60;90.00
3684;DHT22;1858;48.716;9.648;2022-07-23T04:47:56;20.50;52.30
3684;DHT22;1858;48.716;9.648;2022-07-23T04:50:24;20.50;49.60
3684;DHT22;1858;48.716;9.648;2022-07-23T04:55:37;20.60;39.30
3684;DHT22;1858;48.716;9.648;2022-07-23T04:58:07;20.70;35.20
3684;DHT22;1858;48.716;9.648;2022-07-23T05:00:40;20.90;1.00
3684;DHT22;1858;48.716;9.648;2022-07-23T05:03:06;21.20;1.00
3684;DHT22;1858;48.716;9.648;2022-07-23T05:05:33;21.30;1.00
3684;DHT22;1858;48.716;9.648;2022-07-23T05:08:02;21.40;1.00
3684;DHT22;1858;48.716;9.648;2022-07-23T05:10:30;21.40;1.00
3684;DHT22;1858;48.716;9.648;2022-07-23T05:12:57;21.50;1.00
3684;DHT22;1858;48.716;9.648;2022-07-23T05:15:25;21.50;1.00
3684;DHT22;1858;48.716;9.648;2022-07-23T05:17:53;21.60;1.00
3684;DHT22;1858;48.716;9.648;2022-07-23T05:20:23;21.70;1.00
3684;DHT22;1858;48.716;9.648;2022-07-23T05:22:51;21.90;1.00
3684;DHT22;1858;48.716;9.648;2022-07-23T05:25:21;22.10;1.00
3684;DHT22;1858;48.716;9.648;2022-07-23T05:27:49;22.40;99.90
3684;DHT22;1858;48.716;9.648;2022-07-23T05:30:17;22.60;99.90
3684;DHT22;1858;48.716;9.648;2022-07-23T05:32:51;22.80;99.90
3684;DHT22;1858;48.716;9.648;2022-07-23T05:35:18;23.00;99.90
3684;DHT22;1858;48.716;9.648;2022-07-23T05:37:46;23.10;99.90
3684;DHT22;1858;48.716;9.648;2022-07-23T05:40:14;23.40;99.90
3684;DHT22;1858;48.716;9.648;2022-07-23T05:42:43;23.50;99.90
3684;DHT22;1858;48.716;9.648;2022-07-23T05:45:10;23.60;99.90
3684;DHT22;1858;48.716;9.648;2022-07-23T05:47:45;23.70;99.90
3684;DHT22;1858;48.716;9.648;2022-07-23T05:50:09;23.70;99.90
3684;DHT22;1858;48.716;9.648;2022-07-23T05:52:37;23.80;99.90
3684;DHT22;1858;48.716;9.648;2022-07-23T05:55:05;23.70;99.90
3684;DHT22;1858;48.716;9.648;2022-07-23T05:57:33;23.70;99.90
3684;DHT22;1858;48.716;9.648;2022-07-23T06:00:02;23.50;99.90
3684;DHT22;1858;48.716;9.648;2022-07-23T06:02:31;23.50;99.90
3684;DHT22;1858;48.716;9.648;2022-07-23T06:04:59;23.70;99.90
3684;DHT22;1858;48.716;9.648;2022-07-23T06:07:26;23.90;99.90
3684;DHT22;1858;48.716;9.648;2022-07-23T06:09:54;24.30;99.90
3684;DHT22;1858;48.716;9.648;2022-07-23T06:12:22;24.80;99.90
3684;DHT22;1858;48.716;9.648;2022-07-23T06:14:51;25.00;76.70
3684;DHT22;1858;48.716;9.648;2022-07-23T06:17:19;25.20;66.40
3684;DHT22;1858;48.716;9.648;2022-07-23T06:19:49;25.30;5.80
3684;DHT22;1858;48.716;9.648;2022-07-23T06:22:17;25.30;10.90
3684;DHT22;1858;48.716;9.648;2022-07-23T06:24:45;25.30;1.00
3684;DHT22;1858;48.716;9.648;2022-07-23T06:27:15;25.30;1.00
3684;DHT22;1858;48.716;9.648;2022-07-23T06:29:42;25.30;1.00
3684;DHT22;1858;48.716;9.648;2022-07-23T06:32:13;25.40;1.00
3684;DHT22;1858;48.716;9.648;2022-07-23T06:34:43;25.60;5.50
3684;DHT22;1858;48.716;9.648;2022-07-23T06:37:11;25.80;1.00
3684;DHT22;1858;48.716;9.648;2022-07-23T06:39:38;26.00;1.00
3684;DHT22;1858;48.716;9.648;2022-07-23T06:42:08;26.60;1.00
3684;DHT22;1858;48.716;9.648;2022-07-23T06:44:36;27.70;1.00
3684;DHT22;1858;48.716;9.648;2022-07-23T06:47:04;28.90;1.00
3684;DHT22;1858;48.716;9.648;2022-07-23T06:49:32;29.70;1.00
3684;DHT22;1858;48.716;9.648;2022-07-23T06:52:00;30.40;1.00
3684;DHT22;1858;48.716;9.648;2022-07-23T06:54:28;31.10;1.00
3684;DHT22;1858;48.716;9.648;2022-07-23T06:56:55;32.20;1.00
3684;DHT22;1858;48.716;9.648;2022-07-23T06:59:26;33.20;1.00
3684;DHT22;1858;48.716;9.648;2022-07-23T07:01:56;34.30;1.00
3684;DHT22;1858;48.716;9.648;2022-07-23T07:07:14;36.30;99.90
3684;DHT22;1858;48.716;9.648;2022-07-23T07:09:42;37.10;99.90
3684;DHT22;1858;48.716;9.648;2022-07-23T07:12:10;37.70;99.90
3684;DHT22;1858;48.716;9.648;2022-07-23T07:14:38;36.90;99.90
3684;DHT22;1858;48.716;9.648;2022-07-23T07:17:07;36.10;99.90
3684;DHT22;1858;48.716;9.648;2022-07-23T07:19:35;35.40;99.90
3684;DHT22;1858;48.716;9.648;2022-07-23T07:22:03;35.30;99.90
3684;DHT22;1858;48.716;9.648;2022-07-23T07:24:32;35.50;99.90
3684;DHT22;1858;48.716;9.648;2022-07-23T07:27:01;35.60;99.90
3684;DHT22;1858;48.716;9.648;2022-07-23T07:29:30;36.00;99.90
3684;DHT22;1858;48.716;9.648;2022-07-23T07:31:58;35.70;99.90
3684;DHT22;1858;48.716;9.648;2022-07-23T07:34:27;34.90;99.90
3684;DHT22;1858;48.716;9.648;2022-07-23T07:36:54;34.40;99.90
3684;DHT22;1858;48.716;9.648;2022-07-23T07:39:22;35.20;99.90
3684;DHT22;1858;48.716;9.648;2022-07-23T07:41:52;36.50;99.90
3684;DHT22;1858;48.716;9.648;2022-07-23T07:44:38;37.40;99.90
3684;DHT22;1858;48.716;9.648;2022-07-23T07:47:06;37.20;99.90
3684;DHT22;1858;48.716;9.648;2022-07-23T07:49:34;36.90;99.90
3684;DHT22;1858;48.716;9.648;2022-07-23T07:52:02;36.90;99.90
3684;DHT22;1858;48.716;9.648;2022-07-23T07:54:30;37.60;99.90
3684;DHT22;1858;48.716;9.648;2022-07-23T07:56:57;38.70;99.90
3684;DHT22;1858;48.716;9.648;2022-07-23T07:59:26;39.80;99.90
3684;DHT22;1858;48.716;9.648;2022-07-23T08:01:53;39.80;99.90
3684;DHT22;1858;48.716;9.648;2022-07-23T08:04:21;39.30;99.90
3684;DHT22;1858;48.716;9.648;2022-07-23T08:06:49;39.20;99.90
3684;DHT22;1858;48.716;9.648;2022-07-23T08:09:19;39.80;99.90
3684;DHT22;1858;48.716;9.648;2022-07-23T08:11:47;40.30;99.90
3684;DHT22;1858;48.716;9.648;2022-07-23T08:14:17;40.80;99.90
3684;DHT22;1858;48.716;9.648;2022-07-23T08:16:46;41.60;99.90
3684;DHT22;1858;48.716;9.648;2022-07-23T08:19:14;41.90;99.90
3684;DHT22;1858;48.716;9.648;2022-07-23T08:21:41;41.80;99.90
3684;DHT22;1858;48.716;9.648;2022-07-23T08:24:09;40.90;99.90
3684;DHT22;1858;48.716;9.648;2022-07-23T08:26:37;39.90;99.90
3684;DHT22;1858;48.716;9.648;2022-07-23T08:29:05;40.00;99.90
3684;DHT22;1858;48.716;9.648;2022-07-23T08:31:37;39.30;99.90
3684;DHT22;1858;48.716;9.648;2022-07-23T08:34:07;38.80;99.90
3684;DHT22;1858;48.716;9.648;2022-07-23T08:36:35;38.20;99.90
3684;DHT22;1858;48.716;9.648;2022-07-23T08:39:04;37.00;99.90
3684;DHT22;1858;48.716;9.648;2022-07-23T08:41:33;36.00;99.90
3684;DHT22;1858;48.716;9.648;2022-07-23T08:44:02;35.60;99.90
3684;DHT22;1858;48.716;9.648;2022-07-23T08:46:30;35.30;99.90
3684;DHT22;1858;48.716;9.648;2022-07-23T08:49:18;35.80;99.90
3684;DHT22;1858;48.716;9.648;2022-07-23T08:51:46;37.10;99.90
3684;DHT22;1858;48.716;9.648;2022-07-23T08:54:15;38.70;99.90
3684;DHT22;1858;48.716;9.648;2022-07-23T08:56:42;39.90;99.90
3684;DHT22;1858;48.716;9.648;2022-07-23T08:59:10;41.00;99.90
3684;DHT22;1858;48.716;9.648;2022-07-23T09:01:39;42.30;99.90
3684;DHT22;1858;48.716;9.648;2022-07-23T09:04:07;43.30;99.90
3684;DHT22;1858;48.716;9.648;2022-07-23T09:06:38;44.00;99.90
3684;DHT22;1858;48.716;9.648;2022-07-23T09:09:26;44.80;99.90
3684;DHT22;1858;48.716;9.648;2022-07-23T09:11:34;45.50;99.90
3684;DHT22;1858;48.716;9.648;2022-07-23T09:14:02;45.40;99.90
3684;DHT22;1858;48.716;9.648;2022-07-23T09:16:30;45.60;99.90
3684;DHT22;1858;48.716;9.648;2022-07-23T09:19:00;45.90;99.90
3684;DHT22;1858;48.716;9.648;2022-07-23T09:21:29;46.00;99.90
3684;DHT22;1858;48.716;9.648;2022-07-23T09:23:58;45.90;99.90
3684;DHT22;1858;48.716;9.648;2022-07-23T09:26:37;46.20;99.90
3684;DHT22;1858;48.716;9.648;2022-07-23T09:37:09;42.50;99.90
3684;DHT22;1858;48.716;9.648;2022-07-23T09:39:40;42.80;99.90
3684;DHT22;1858;48.716;9.648;2022-07-23T09:42:15;42.60;99.90
3684;DHT22;1858;48.716;9.648;2022-07-23T09:44:52;43.40;99.90
3684;DHT22;1858;48.716;9.648;2022-07-23T09:47:19;44.00;99.90
3684;DHT22;1858;48.716;9.648;2022-07-23T09:50:05;44.30;99.90
3684;DHT22;1858;48.716;9.648;2022-07-23T09:52:31;44.30;99.90
3684;DHT22;1858;48.716;9.648;2022-07-23T09:55:00;44.00;99.90
3684;DHT22;1858;48.716;9.648;2022-07-23T09:57:29;44.50;99.90
3684;DHT22;1858;48.716;9.648;2022-07-23T10:00:02;44.80;99.90
3684;DHT22;1858;48.716;9.648;2022-07-23T10:02:40;45.70;99.90
3684;DHT22;1858;48.716;9.648;2022-07-23T10:05:12;45.70;99.90
3684;DHT22;1858;48.716;9.648;2022-07-23T10:07:40;45.00;99.90
3684;DHT22;1858;48.716;9.648;2022-07-23T10:10:10;44.80;99.90
3684;DHT22;1858;48.716;9.648;2022-07-23T10:12:38;43.90;99.90
3684;DHT22;1858;48.716;9.648;2022-07-23T10:18:10;43.40;99.90
3684;DHT22;1858;48.716;9.648;2022-07-23T10:20:47;43.00;99.90
3684;DHT22;1858;48.716;9.648;2022-07-23T10:23:30;42.50;99.90
3684;DHT22;1858;48.716;9.648;2022-07-23T10:31:35;42.40;99.90
3684;DHT22;1858;48.716;9.648;2022-07-23T10:37:19;41.90;99.90
3684;DHT22;1858;48.716;9.648;2022-07-23T10:45:51;41.20;99.90
3684;DHT22;1858;48.716;9.648;2022-07-23T10:48:23;42.70;99.90
3684;DHT22;1858;48.716;9.648;2022-07-23T10:51:12;44.00;99.90
3684;DHT22;1858;48.716;9.648;2022-07-23T10:59:07;45.30;99.90
3684;DHT22;1858;48.716;9.648;2022-07-23T11:01:40;45.60;99.90
3684;DHT22;1858;48.716;9.648;2022-07-23T11:04:08;45.80;99.90
3684;DHT22;1858;48.716;9.648;2022-07-23T11:09:44;45.80;99.90
3684;DHT22;1858;48.716;9.648;2022-07-23T11:15:10;45.00;99.90
3684;DHT22;1858;48.716;9.648;2022-07-23T11:17:59;44.30;99.90
3684;DHT22;1858;48.716;9.648;2022-07-23T11:20:33;43.20;99.90
3684;DHT22;1858;48.716;9.648;2022-07-23T11:23:03;41.90;99.90
3684;DHT22;1858;48.716;9.648;2022-07-23T11:28:22;40.60;99.90
3684;DHT22;1858;48.716;9.648;2022-07-23T11:30:53;39.80;99.90
3684;DHT22;1858;48.716;9.648;2022-07-23T11:33:27;39.30;99.90
3684;DHT22;1858;48.716;9.648;2022-07-23T11:36:09;39.10;99.90
3684;DHT22;1858;48.716;9.648;2022-07-23T11:38:39;39.00;99.90
3684;DHT22;1858;48.716;9.648;2022-07-23T11:41:12;38.80;99.90
3684;DHT22;1858;48.716;9.648;2022-07-23T11:44:01;38.30;99.90
3684;DHT22;1858;48.716;9.648;2022-07-23T11:46:30;37.60;99.90
3684;DHT22;1858;48.716;9.648;2022-07-23T11:49:04;36.80;99.90
3684;DHT22;1858;48.716;9.648;2022-07-23T11:51:33;36.30;99.90
3684;DHT22;1858;48.716;9.648;2022-07-23T11:54:10;35.90;99.90
3684;DHT22;1858;48.716;9.648;2022-07-23T11:56:38;35.50;99.90
3684;DHT22;1858;48.716;9.648;2022-07-23T11:59:09;35.40;99.90
3684;DHT22;1858;48.716;9.648;2022-07-23T12:01:43;35.40;99.90
3684;DHT22;1858;48.716;9.648;2022-07-23T12:04:08;35.30;99.90
3684;DHT22;1858;48.716;9.648;2022-07-23T12:06:43;34.90;99.90
3684;DHT22;1858;48.716;9.648;2022-07-23T12:09:13;34.80;99.90
3684;DHT22;1858;48.716;9.648;2022-07-23T12:11:59;34.70;99.90
3684;DHT22;1858;48.716;9.648;2022-07-23T12:14:27;34.90;99.90
3684;DHT22;1858;48.716;9.648;2022-07-23T12:17:10;35.10;99.90
3684;DHT22;1858;48.716;9.648;2022-07-23T12:19:40;35.20;99.90
3684;DHT22;1858;48.716;9.648;2022-07-23T12:22:09;35.30;99.90
3684;DHT22;1858;48.716;9.648;2022-07-23T12:24:59;35.40;99.90
3684;DHT22;1858;48.716;9.648;2022-07-23T12:27:28;35.40;99.90
3684;DHT22;1858;48.716;9.648;2022-07-23T12:30:14;35.40;99.90
3684;DHT22;1858;48.716;9.648;2022-07-23T12:32:31;35.40;99.90
3684;DHT22;1858;48.716;9.648;2022-07-23T12:35:05;35.30;99.90
3684;DHT22;1858;48.716;9.648;2022-07-23T12:37:36;35.00;99.90
3684;DHT22;1858;48.716;9.648;2022-07-23T12:40:29;35.00;99.90
3684;DHT22;1858;48.716;9.648;2022-07-23T12:43:04;34.90;99.90
3684;DHT22;1858;48.716;9.648;2022-07-23T12:48:49;34.60;99.90
3684;DHT22;1858;48.716;9.648;2022-07-23T12:54:27;34.50;99.90
3684;DHT22;1858;48.716;9.648;2022-07-23T12:56:37;34.30;99.90
3684;DHT22;1858;48.716;9.648;2022-07-23T12:59:10;34.30;99.90
3684;DHT22;1858;48.716;9.648;2022-07-23T13:01:42;34.20;99.90
3684;DHT22;1858;48.716;9.648;2022-07-23T13:04:31;34.00;99.90
3684;DHT22;1858;48.716;9.648;2022-07-23T13:07:01;33.70;99.90
3684;DHT22;1858;48.716;9.648;2022-07-23T13:09:31;33.50;99.90
3684;DHT22;1858;48.716;9.648;2022-07-23T13:12:00;33.40;99.90
3684;DHT22;1858;48.716;9.648;2022-07-23T13:14:29;33.10;99.90
3684;DHT22;1858;48.716;9.648;2022-07-23T13:16:57;32.80;99.90
3684;DHT22;1858;48.716;9.648;2022-07-23T13:19:26;32.60;99.90
3684;DHT22;1858;48.716;9.648;2022-07-23T13:21:55;32.50;99.90
3684;DHT22;1858;48.716;9.648;2022-07-23T13:24:28;32.40;99.90
3684;DHT22;1858;48.716;9.648;2022-07-23T13:26:59;32.40;99.90
3684;DHT22;1858;48.716;9.648;2022-07-23T13:32:19;32.40;99.90
3684;DHT22;1858;48.716;9.648;2022-07-23T13:34:53;32.60;99.90
3684;DHT22;1858;48.716;9.648;2022-07-23T13:37:20;32.70;99.90
3684;DHT22;1858;48.716;9.648;2022-07-23T13:39:48;32.80;99.90
3684;DHT22;1858;48.716;9.648;2022-07-23T13:42:17;32.90;99.90
3684;DHT22;1858;48.716;9.648;2022-07-23T13:44:47;32.70;99.90
3684;DHT22;1858;48.716;9.648;2022-07-23T13:47:15;32.60;99.90
3684;DHT22;1858;48.716;9.648;2022-07-23T13:49:44;32.60;99.90
3684;DHT22;1858;48.716;9.648;2022-07-23T13:52:14;32.50;99.90
3684;DHT22;1858;48.716;9.648;2022-07-23T13:54:44;32.10;99.90
3684;DHT22;1858;48.716;9.648;2022-07-23T13:57:13;31.90;99.90
3684;DHT22;1858;48.716;9.648;2022-07-23T13:59:43;31.90;99.90
3684;DHT22;1858;48.716;9.648;2022-07-23T14:02:13;31.90;99.90
3684;DHT22;1858;48.716;9.648;2022-07-23T14:04:43;31.90;99.90
3684;DHT22;1858;48.716;9.648;2022-07-23T14:07:12;31.70;99.90
3684;DHT22;1858;48.716;9.648;2022-07-23T14:09:41;31.70;99.90
3684;DHT22;1858;48.716;9.648;2022-07-23T14:12:10;31.80;99.90
3684;DHT22;1858;48.716;9.648;2022-07-23T14:14:41;31.90;99.90
3684;DHT22;1858;48.716;9.648;2022-07-23T14:17:12;32.00;99.90
3684;DHT22;1858;48.716;9.648;2022-07-23T14:19:41;32.10;99.90
3684;DHT22;1858;48.716;9.648;2022-07-23T14:22:10;32.00;99.90
3684;DHT22;1858;48.716;9.648;2022-07-23T14:24:39;32.00;99.90
3684;DHT22;1858;48.716;9.648;2022-07-23T14:27:08;32.00;99.90
3684;DHT22;1858;48.716;9.648;2022-07-23T14:29:39;32.20;99.90
3684;DHT22;1858;48.716;9.648;2022-07-23T14:32:08;32.20;99.90
3684;DHT22;1858;48.716;9.648;2022-07-23T14:34:37;32.30;99.90
3684;DHT22;1858;48.716;9.648;2022-07-23T14:37:06;32.30;99.90
3684;DHT22;1858;48.716;9.648;2022-07-23T14:39:41;32.40;99.90
3684;DHT22;1858;48.716;9.648;2022-07-23T14:42:07;32.30;99.90
3684;DHT22;1858;48.716;9.648;2022-07-23T14:44:37;32.30;99.90
3684;DHT22;1858;48.716;9.648;2022-07-23T14:47:09;32.30;99.90
3684;DHT22;1858;48.716;9.648;2022-07-23T14:49:40;32.30;99.90
3684;DHT22;1858;48.716;9.648;2022-07-23T14:52:09;32.10;99.90
3684;DHT22;1858;48.716;9.648;2022-07-23T14:54:37;32.10;99.90
3684;DHT22;1858;48.716;9.648;2022-07-23T14:57:07;32.10;99.90
3684;DHT22;1858;48.716;9.648;2022-07-23T14:59:36;32.00;99.90
3684;DHT22;1858;48.716;9.648;2022-07-23T15:02:05;31.70;99.90
3684;DHT22;1858;48.716;9.648;2022-07-23T15:04:36;31.60;99.90
3684;DHT22;1858;48.716;9.648;2022-07-23T15:07:05;31.60;99.90
3684;DHT22;1858;48.716;9.648;2022-07-23T15:09:34;31.60;99.90
3684;DHT22;1858;48.716;9.648;2022-07-23T15:12:06;31.60;99.90
3684;DHT22;1858;48.716;9.648;2022-07-23T15:14:37;31.50;99.90
3684;DHT22;1858;48.716;9.648;2022-07-23T15:17:08;31.50;99.90
3684;DHT22;1858;48.716;9.648;2022-07-23T15:19:37;31.50;99.90
3684;DHT22;1858;48.716;9.648;2022-07-23T15:22:06;31.50;99.90
3684;DHT22;1858;48.716;9.648;2022-07-23T15:24:36;31.60;99.90
3684;DHT22;1858;48.716;9.648;2022-07-23T15:27:07;31.70;99.90
3684;DHT22;1858;48.716;9.648;2022-07-23T15:29:36;32.00;99.90
3684;DHT22;1858;48.716;9.648;2022-07-23T15:32:05;32.10;99.90
3684;DHT22;1858;48.716;9.648;2022-07-23T15:34:34;32.30;99.90
3684;DHT22;1858;48.716;9.648;2022-07-23T15:37:03;32.40;99.90
3684;DHT22;1858;48.716;9.648;2022-07-23T15:39:33;32.50;99.90
3684;DHT22;1858;48.716;9.648;2022-07-23T15:42:03;32.50;99.90
3684;DHT22;1858;48.716;9.648;2022-07-23T15:44:32;32.50;99.90
3684;DHT22;1858;48.716;9.648;2022-07-23T15:47:01;32.40;99.90
3684;DHT22;1858;48.716;9.648;2022-07-23T15:49:29;32.30;99.90
3684;DHT22;1858;48.716;9.648;2022-07-23T15:52:01;32.00;99.90
3684;DHT22;1858;48.716;9.648;2022-07-23T15:54:32;31.90;99.90
3684;DHT22;1858;48.716;9.648;2022-07-23T15:57:08;31.80;99.90
3684;DHT22;1858;48.716;9.648;2022-07-23T15:59:32;31.60;99.90
3684;DHT22;1858;48.716;9.648;2022-07-23T16:02:03;31.50;99.90
3684;DHT22;1858;48.716;9.648;2022-07-23T16:04:34;31.50;99.90
3684;DHT22;1858;48.716;9.648;2022-07-23T16:07:05;31.50;99.90
3684;DHT22;1858;48.716;9.648;2022-07-23T16:09:39;31.50;99.90
3684;DHT22;1858;48.716;9.648;2022-07-23T16:12:07;31.50;99.90
3684;DHT22;1858;48.716;9.648;2022-07-23T16:14:36;31.40;99.90
3684;DHT22;1858;48.716;9.648;2022-07-23T16:17:05;31.20;99.90
3684;DHT22;1858;48.716;9.648;2022-07-23T16:19:40;31.10;99.90
3684;DHT22;1858;48.716;9.648;2022-07-23T16:22:09;31.10;99.90
3684;DHT22;1858;48.716;9.648;2022-07-23T16:27:31;30.90;99.90
3684;DHT22;1858;48.716;9.648;2022-07-23T16:30:37;30.80;99.90
3684;DHT22;1858;48.716;9.648;2022-07-23T16:33:07;30.70;99.90
3684;DHT22;1858;48.716;9.648;2022-07-23T16:35:36;30.60;99.90
3684;DHT22;1858;48.716;9.648;2022-07-23T16:38:05;30.30;99.90
3684;DHT22;1858;48.716;9.648;2022-07-23T16:40:33;30.20;99.90
3684;DHT22;1858;48.716;9.648;2022-07-23T16:43:02;30.10;99.90
3684;DHT22;1858;48.716;9.648;2022-07-23T16:45:34;29.90;99.90
3684;DHT22;1858;48.716;9.648;2022-07-23T16:48:06;29.80;99.90
3684;DHT22;1858;48.716;9.648;2022-07-23T16:50:38;29.60;99.90
3684;DHT22;1858;48.716;9.648;2022-07-23T16:53:06;29.60;99.90
3684;DHT22;1858;48.716;9.648;2022-07-23T16:55:37;29.60;99.90
3684;DHT22;1858;48.716;9.648;2022-07-23T16:58:06;29.60;99.90
3684;DHT22;1858;48.716;9.648;2022-07-23T17:00:35;29.50;99.90
3684;DHT22;1858;48.716;9.648;2022-07-23T17:03:13;29.50;99.90
3684;DHT22;1858;48.716;9.648;2022-07-23T17:05:47;29.40;99.90
3684;DHT22;1858;48.716;9.648;2022-07-23T17:08:16;29.40;99.90
3684;DHT22;1858;48.716;9.648;2022-07-23T17:10:45;29.30;99.90
3684;DHT22;1858;48.716;9.648;2022-07-23T17:13:14;29.30;99.90
3684;DHT22;1858;48.716;9.648;2022-07-23T17:15:44;29.30;99.90
3684;DHT22;1858;48.716;9.648;2022-07-23T17:18:15;29.30;99.90
3684;DHT22;1858;48.716;9.648;2022-07-23T17:20:45;29.50;99.90
3684;DHT22;1858;48.716;9.648;2022-07-23T17:23:13;29.50;99.90